JBU606 KFLL-KEWR
Flight info
| Callsign | JBU606 |
|---|---|
| Flight time | 2h 36m |
| Altitude | 37000 |
| Route | FEALX2 ETECK GRUBR Y299 SEELO GARIC Q129 AARNN QUART PHLBO4 |
| Aircraft | A320/M-SDE3FGHIRWY/LB1 |
Departure
| Time | 2026-04-21 20:00 |
|---|---|
| Airport | Fort Lauderdale Hollywood International Airport (KFLL) |
Arrival
| Time | 2026-04-21 22:36 |
|---|---|
| Airport | Newark Liberty International Airport (KEWR) |
| Time | Latitude | Longitude | Altitude | Speed | Heading |
|---|---|---|---|---|---|
| 2026-04-21 19:38 | 26.06888 | -80.14256 | 18 ft | 0 kts | 359° |
| 2026-04-21 19:49 | 26.06887 | -80.14256 | 19 ft | 1 kts | 359° |
| 2026-04-21 19:50 | 26.06878 | -80.14256 | 20 ft | 3 kts | 2° |
| 2026-04-21 19:50 | 26.06850 | -80.14258 | 19 ft | 3 kts | 6° |
| 2026-04-21 19:50 | 26.06830 | -80.14259 | 20 ft | 3 kts | 353° |
| 2026-04-21 19:50 | 26.06810 | -80.14257 | 20 ft | 3 kts | 354° |
| 2026-04-21 19:51 | 26.06794 | -80.14254 | 20 ft | 1 kts | 344° |
| 2026-04-21 19:51 | 26.06792 | -80.14253 | 19 ft | 0 kts | 344° |
| 2026-04-21 19:54 | 26.06793 | -80.14254 | 19 ft | 1 kts | 343° |
| 2026-04-21 19:54 | 26.06803 | -80.14273 | 19 ft | 7 kts | 278° |
| 2026-04-21 19:55 | 26.06763 | -80.14316 | 18 ft | 9 kts | 218° |
| 2026-04-21 19:55 | 26.06752 | -80.14392 | 18 ft | 12 kts | 269° |
| 2026-04-21 19:55 | 26.06753 | -80.14497 | 16 ft | 15 kts | 274° |
| 2026-04-21 19:55 | 26.06766 | -80.14622 | 16 ft | 17 kts | 270° |
| 2026-04-21 19:56 | 26.06767 | -80.14753 | 19 ft | 16 kts | 270° |
| 2026-04-21 19:56 | 26.06765 | -80.14877 | 22 ft | 16 kts | 273° |
| 2026-04-21 19:56 | 26.06768 | -80.14960 | 22 ft | 17 kts | 269° |
| 2026-04-21 19:56 | 26.06769 | -80.15095 | 23 ft | 18 kts | 270° |
| 2026-04-21 19:57 | 26.06769 | -80.15233 | 26 ft | 18 kts | 271° |
| 2026-04-21 19:57 | 26.06770 | -80.15370 | 27 ft | 18 kts | 270° |
| 2026-04-21 19:57 | 26.06770 | -80.15500 | 25 ft | 13 kts | 261° |
| 2026-04-21 19:57 | 26.06696 | -80.15547 | 27 ft | 10 kts | 234° |
| 2026-04-21 19:58 | 26.06698 | -80.15608 | 24 ft | 9 kts | 270° |
| 2026-04-21 19:58 | 26.06698 | -80.15689 | 23 ft | 12 kts | 269° |
| 2026-04-21 19:58 | 26.06698 | -80.15790 | 22 ft | 13 kts | 267° |
| 2026-04-21 19:58 | 26.06646 | -80.15824 | 20 ft | 11 kts | 179° |
| 2026-04-21 19:59 | 26.06590 | -80.15772 | 21 ft | 12 kts | 95° |
| 2026-04-21 19:59 | 26.06588 | -80.15681 | 24 ft | 12 kts | 90° |
| 2026-04-21 19:59 | 26.06587 | -80.15384 | 24 ft | 74 kts | 90° |
| 2026-04-21 19:59 | 26.06583 | -80.14579 | 21 ft | 132 kts | 90° |
| 2026-04-21 20:00 | 26.06564 | -80.13482 | 489 ft | 140 kts | 87° |
| 2026-04-21 20:00 | 26.06519 | -80.12427 | 1255 ft | 133 kts | 86° |
| 2026-04-21 20:00 | 26.06530 | -80.11367 | 1831 ft | 145 kts | 83° |
| 2026-04-21 20:00 | 26.06568 | -80.10171 | 2116 ft | 165 kts | 84° |
| 2026-04-21 20:01 | 26.06608 | -80.08802 | 2313 ft | 189 kts | 85° |
| 2026-04-21 20:01 | 26.06644 | -80.07251 | 2568 ft | 213 kts | 86° |
| 2026-04-21 20:01 | 26.06675 | -80.05511 | 3021 ft | 234 kts | 86° |
| 2026-04-21 20:01 | 26.06698 | -80.03673 | 3801 ft | 240 kts | 87° |
| 2026-04-21 20:02 | 26.06753 | -80.01799 | 4573 ft | 247 kts | 80° |
| 2026-04-21 20:02 | 26.07347 | -80.00017 | 5261 ft | 254 kts | 56° |
| 2026-04-21 20:02 | 26.08454 | -79.98453 | 6018 ft | 260 kts | 50° |
| 2026-04-21 20:02 | 26.09624 | -79.96880 | 6716 ft | 269 kts | 49° |
| 2026-04-21 20:03 | 26.10835 | -79.95254 | 7432 ft | 274 kts | 49° |
| 2026-04-21 20:03 | 26.12061 | -79.93602 | 8179 ft | 280 kts | 49° |
| 2026-04-21 20:03 | 26.13306 | -79.91919 | 8932 ft | 284 kts | 47° |
| 2026-04-21 20:03 | 26.14571 | -79.90208 | 9651 ft | 289 kts | 47° |
| 2026-04-21 20:04 | 26.15862 | -79.88457 | 10323 ft | 297 kts | 49° |
| 2026-04-21 20:04 | 26.17179 | -79.86570 | 10515 ft | 321 kts | 50° |
| 2026-04-21 20:04 | 26.18552 | -79.84489 | 10652 ft | 344 kts | 52° |
| 2026-04-21 20:04 | 26.19968 | -79.82281 | 11036 ft | 356 kts | 52° |
| 2026-04-21 20:05 | 26.21411 | -79.80015 | 11676 ft | 359 kts | 52° |
| 2026-04-21 20:05 | 26.22864 | -79.77742 | 12357 ft | 361 kts | 51° |
| 2026-04-21 20:05 | 26.24336 | -79.75457 | 12995 ft | 365 kts | 51° |
| 2026-04-21 20:05 | 26.25827 | -79.73155 | 13626 ft | 368 kts | 52° |
| 2026-04-21 20:06 | 26.27336 | -79.70833 | 14221 ft | 372 kts | 51° |
| 2026-04-21 20:06 | 26.28848 | -79.68521 | 14751 ft | 375 kts | 50° |
| 2026-04-21 20:06 | 26.30590 | -79.66352 | 15271 ft | 377 kts | 42° |
| 2026-04-21 20:06 | 26.32434 | -79.64249 | 15794 ft | 380 kts | 42° |
| 2026-04-21 20:07 | 26.34288 | -79.62127 | 16314 ft | 384 kts | 43° |
| 2026-04-21 20:07 | 26.36162 | -79.59972 | 16839 ft | 388 kts | 42° |
| 2026-04-21 20:07 | 26.38044 | -79.57804 | 17372 ft | 391 kts | 43° |
| 2026-04-21 20:07 | 26.39949 | -79.55607 | 17911 ft | 395 kts | 42° |
| 2026-04-21 20:08 | 26.41866 | -79.53398 | 18454 ft | 399 kts | 43° |
| 2026-04-21 20:08 | 26.43805 | -79.51161 | 18940 ft | 403 kts | 42° |
| 2026-04-21 20:08 | 26.45764 | -79.48903 | 19420 ft | 407 kts | 42° |
| 2026-04-21 20:08 | 26.47739 | -79.46621 | 19903 ft | 411 kts | 42° |
| 2026-04-21 20:09 | 26.49735 | -79.44316 | 20422 ft | 415 kts | 42° |
| 2026-04-21 20:09 | 26.51752 | -79.41989 | 20907 ft | 419 kts | 41° |
| 2026-04-21 20:09 | 26.53789 | -79.39642 | 21369 ft | 422 kts | 41° |
| 2026-04-21 20:09 | 26.55974 | -79.37524 | 21795 ft | 421 kts | 31° |
| 2026-04-21 20:10 | 26.58442 | -79.35764 | 22226 ft | 421 kts | 26° |
| 2026-04-21 20:10 | 26.60961 | -79.34062 | 22660 ft | 424 kts | 26° |
| 2026-04-21 20:10 | 26.63487 | -79.32350 | 23087 ft | 427 kts | 26° |
| 2026-04-21 20:10 | 26.66042 | -79.30613 | 23490 ft | 431 kts | 25° |
| 2026-04-21 20:11 | 26.68606 | -79.28868 | 23884 ft | 434 kts | 25° |
| 2026-04-21 20:11 | 26.71193 | -79.27105 | 24231 ft | 436 kts | 25° |
| 2026-04-21 20:11 | 26.73787 | -79.25334 | 24587 ft | 438 kts | 25° |
| 2026-04-21 20:11 | 26.76396 | -79.23554 | 24957 ft | 440 kts | 25° |
| 2026-04-21 20:12 | 26.79017 | -79.21763 | 25343 ft | 440 kts | 25° |
| 2026-04-21 20:12 | 26.81636 | -79.19973 | 25697 ft | 442 kts | 25° |
| 2026-04-21 20:12 | 26.84266 | -79.18179 | 26042 ft | 443 kts | 25° |
| 2026-04-21 20:12 | 26.86902 | -79.16379 | 26396 ft | 445 kts | 25° |
| 2026-04-21 20:13 | 26.89552 | -79.14566 | 26718 ft | 447 kts | 25° |
| 2026-04-21 20:13 | 26.92217 | -79.12744 | 27049 ft | 449 kts | 25° |
| 2026-04-21 20:13 | 26.94883 | -79.10921 | 27379 ft | 451 kts | 25° |
| 2026-04-21 20:13 | 26.97572 | -79.09083 | 27702 ft | 453 kts | 25° |
| 2026-04-21 20:14 | 27.00263 | -79.07241 | 28021 ft | 455 kts | 25° |
| 2026-04-21 20:14 | 27.02937 | -79.05409 | 28342 ft | 457 kts | 25° |
| 2026-04-21 20:14 | 27.05658 | -79.03544 | 28631 ft | 460 kts | 25° |
| 2026-04-21 20:14 | 27.08391 | -79.01671 | 29026 ft | 460 kts | 25° |
| 2026-04-21 20:15 | 27.11116 | -78.99797 | 29448 ft | 459 kts | 25° |
| 2026-04-21 20:15 | 27.13842 | -78.97921 | 29879 ft | 459 kts | 25° |
| 2026-04-21 20:15 | 27.16559 | -78.96050 | 30308 ft | 458 kts | 25° |
| 2026-04-21 20:15 | 27.19271 | -78.94183 | 30680 ft | 457 kts | 25° |
| 2026-04-21 20:16 | 27.21985 | -78.92315 | 31060 ft | 456 kts | 25° |
| 2026-04-21 20:16 | 27.24684 | -78.90457 | 31438 ft | 455 kts | 25° |
| 2026-04-21 20:16 | 27.27390 | -78.88594 | 31823 ft | 454 kts | 25° |
| 2026-04-21 20:16 | 27.30076 | -78.86740 | 32206 ft | 453 kts | 25° |
| 2026-04-21 20:17 | 27.32766 | -78.84880 | 32595 ft | 452 kts | 25° |
| 2026-04-21 20:17 | 27.35454 | -78.83022 | 32985 ft | 451 kts | 25° |
| 2026-04-21 20:17 | 27.38149 | -78.81250 | 33376 ft | 446 kts | 19° |
| 2026-04-21 20:17 | 27.40989 | -78.79942 | 33762 ft | 436 kts | 10° |
| 2026-04-21 20:18 | 27.42914 | -78.79376 | 34016 ft | 430 kts | 4° |
| 2026-04-21 20:18 | 27.46802 | -78.78762 | 34487 ft | 425 kts | 0° |
| 2026-04-21 20:18 | 27.49731 | -78.78342 | 34769 ft | 425 kts | 0° |
| 2026-04-21 20:18 | 27.52672 | -78.77916 | 35046 ft | 425 kts | 0° |
| 2026-04-21 20:19 | 27.55610 | -78.77485 | 35299 ft | 426 kts | 0° |
| 2026-04-21 20:19 | 27.58551 | -78.77051 | 35550 ft | 426 kts | 0° |
| 2026-04-21 20:19 | 27.61499 | -78.76615 | 35828 ft | 427 kts | 0° |
| 2026-04-21 20:19 | 27.64441 | -78.76181 | 36097 ft | 426 kts | 360° |
| 2026-04-21 20:20 | 27.67387 | -78.75747 | 36351 ft | 426 kts | 360° |
| 2026-04-21 20:20 | 27.70289 | -78.75321 | 36580 ft | 426 kts | 360° |
| 2026-04-21 20:20 | 27.73231 | -78.74886 | 36807 ft | 427 kts | 359° |
| 2026-04-21 20:20 | 27.76181 | -78.74454 | 37034 ft | 427 kts | 359° |
| 2026-04-21 20:21 | 27.79126 | -78.74024 | 37218 ft | 428 kts | 359° |
| 2026-04-21 20:21 | 27.85085 | -78.73155 | 37284 ft | 435 kts | 359° |
| 2026-04-21 20:22 | 27.91100 | -78.72272 | 37307 ft | 437 kts | 359° |
| 2026-04-21 20:22 | 28.00100 | -78.70959 | 37290 ft | 436 kts | 359° |
| 2026-04-21 20:23 | 28.06110 | -78.70070 | 37291 ft | 436 kts | 359° |
| 2026-04-21 20:23 | 28.12140 | -78.69176 | 37304 ft | 437 kts | 359° |
| 2026-04-21 20:24 | 28.18168 | -78.68281 | 37313 ft | 437 kts | 360° |
| 2026-04-21 20:24 | 28.24201 | -78.67390 | 37325 ft | 437 kts | 360° |
| 2026-04-21 20:25 | 28.30238 | -78.66500 | 37321 ft | 437 kts | 360° |
| 2026-04-21 20:25 | 28.36279 | -78.65602 | 37319 ft | 437 kts | 360° |
| 2026-04-21 20:26 | 28.42314 | -78.64708 | 37316 ft | 437 kts | 360° |
| 2026-04-21 20:26 | 28.48348 | -78.63814 | 37344 ft | 437 kts | 360° |
| 2026-04-21 20:27 | 28.54349 | -78.62924 | 37334 ft | 437 kts | 360° |
| 2026-04-21 20:27 | 28.60379 | -78.62024 | 37327 ft | 437 kts | 360° |
| 2026-04-21 20:28 | 28.66414 | -78.61120 | 37322 ft | 437 kts | 360° |
| 2026-04-21 20:28 | 28.72454 | -78.60211 | 37321 ft | 437 kts | 360° |
| 2026-04-21 20:29 | 28.78477 | -78.59313 | 37343 ft | 437 kts | 360° |
| 2026-04-21 20:29 | 28.84508 | -78.58418 | 37330 ft | 437 kts | 360° |
| 2026-04-21 20:30 | 28.90538 | -78.57505 | 37330 ft | 437 kts | 360° |
| 2026-04-21 20:30 | 28.96569 | -78.56599 | 37328 ft | 437 kts | 360° |
| 2026-04-21 20:31 | 29.02591 | -78.55687 | 37328 ft | 437 kts | 360° |
| 2026-04-21 20:31 | 29.08613 | -78.54783 | 37349 ft | 436 kts | 360° |
| 2026-04-21 20:32 | 29.14635 | -78.53883 | 37344 ft | 436 kts | 0° |
| 2026-04-21 20:32 | 29.20652 | -78.52974 | 37336 ft | 436 kts | 0° |
| 2026-04-21 20:33 | 29.26672 | -78.52062 | 37334 ft | 436 kts | 0° |
| 2026-04-21 20:33 | 29.32683 | -78.51152 | 37331 ft | 436 kts | 0° |
| 2026-04-21 20:34 | 29.38659 | -78.50248 | 37350 ft | 436 kts | 0° |
| 2026-04-21 20:34 | 29.44674 | -78.49341 | 37342 ft | 436 kts | 0° |
| 2026-04-21 20:35 | 29.50642 | -78.48967 | 37331 ft | 423 kts | 347° |
| 2026-04-21 20:35 | 29.56498 | -78.49607 | 37328 ft | 423 kts | 348° |
| 2026-04-21 20:36 | 29.62365 | -78.50236 | 37360 ft | 423 kts | 348° |
| 2026-04-21 20:36 | 29.68229 | -78.50861 | 37347 ft | 423 kts | 348° |
| 2026-04-21 20:37 | 29.74085 | -78.51488 | 37338 ft | 423 kts | 348° |
| 2026-04-21 20:37 | 29.79936 | -78.52128 | 37332 ft | 422 kts | 347° |
| 2026-04-21 20:38 | 29.85791 | -78.52776 | 37332 ft | 422 kts | 347° |
| 2026-04-21 20:38 | 29.91637 | -78.53411 | 37359 ft | 422 kts | 347° |
| 2026-04-21 20:39 | 29.97496 | -78.54038 | 37348 ft | 422 kts | 348° |
| 2026-04-21 20:39 | 30.03306 | -78.54663 | 37340 ft | 422 kts | 347° |
| 2026-04-21 20:40 | 30.09145 | -78.55293 | 37334 ft | 422 kts | 347° |
| 2026-04-21 20:40 | 30.15012 | -78.55811 | 37328 ft | 427 kts | 354° |
| 2026-04-21 20:41 | 30.20991 | -78.55058 | 37326 ft | 433 kts | 359° |
| 2026-04-21 20:41 | 30.26974 | -78.54197 | 37323 ft | 433 kts | 359° |
| 2026-04-21 20:42 | 30.32965 | -78.53354 | 37324 ft | 433 kts | 359° |
| 2026-04-21 20:42 | 30.38952 | -78.52502 | 37324 ft | 434 kts | 359° |
| 2026-04-21 20:43 | 30.44941 | -78.51620 | 37342 ft | 434 kts | 0° |
| 2026-04-21 20:43 | 30.50933 | -78.50661 | 37342 ft | 434 kts | 0° |
| 2026-04-21 20:44 | 30.55900 | -78.49839 | 37340 ft | 434 kts | 0° |
| 2026-04-21 20:44 | 30.61890 | -78.48846 | 37335 ft | 434 kts | 0° |
| 2026-04-21 20:45 | 30.68837 | -78.47713 | 37330 ft | 434 kts | 0° |
| 2026-04-21 20:45 | 30.74821 | -78.46738 | 37356 ft | 434 kts | 0° |
| 2026-04-21 20:46 | 30.79790 | -78.45932 | 37353 ft | 433 kts | 0° |
| 2026-04-21 20:46 | 30.85790 | -78.44957 | 37352 ft | 433 kts | 0° |
| 2026-04-21 20:47 | 30.91711 | -78.43987 | 37342 ft | 432 kts | 0° |
| 2026-04-21 20:47 | 30.97661 | -78.43014 | 37337 ft | 432 kts | 0° |
| 2026-04-21 20:48 | 31.03623 | -78.42034 | 37344 ft | 431 kts | 0° |
| 2026-04-21 20:48 | 31.09553 | -78.41063 | 37341 ft | 430 kts | 0° |
| 2026-04-21 20:49 | 31.15473 | -78.40101 | 37336 ft | 429 kts | 0° |
| 2026-04-21 20:49 | 31.21387 | -78.39132 | 37334 ft | 429 kts | 0° |
| 2026-04-21 20:50 | 31.27302 | -78.38161 | 37355 ft | 429 kts | 0° |
| 2026-04-21 20:50 | 31.33210 | -78.37185 | 37347 ft | 429 kts | 0° |
| 2026-04-21 20:51 | 31.39120 | -78.36211 | 37342 ft | 428 kts | 0° |
| 2026-04-21 20:51 | 31.45021 | -78.35248 | 37339 ft | 428 kts | 0° |
| 2026-04-21 20:52 | 31.50921 | -78.34270 | 37335 ft | 428 kts | 0° |
| 2026-04-21 20:52 | 31.56823 | -78.33294 | 37332 ft | 427 kts | 0° |
| 2026-04-21 20:53 | 31.62704 | -78.32315 | 37329 ft | 426 kts | 0° |
| 2026-04-21 20:53 | 31.68536 | -78.31344 | 37329 ft | 426 kts | 0° |
| 2026-04-21 20:54 | 31.74415 | -78.30371 | 37330 ft | 427 kts | 0° |
| 2026-04-21 20:54 | 31.80294 | -78.29398 | 37333 ft | 427 kts | 0° |
| 2026-04-21 20:55 | 31.86169 | -78.28419 | 37355 ft | 427 kts | 0° |
| 2026-04-21 20:55 | 31.92039 | -78.27437 | 37350 ft | 426 kts | 0° |
| 2026-04-21 20:56 | 31.97919 | -78.26451 | 37349 ft | 426 kts | 0° |
| 2026-04-21 20:56 | 32.03783 | -78.25480 | 37348 ft | 425 kts | 0° |
| 2026-04-21 20:57 | 32.09632 | -78.24605 | 37340 ft | 422 kts | 359° |
| 2026-04-21 20:57 | 32.15449 | -78.23791 | 37337 ft | 420 kts | 359° |
| 2026-04-21 20:58 | 32.21252 | -78.22968 | 37342 ft | 420 kts | 359° |
| 2026-04-21 20:58 | 32.27057 | -78.22122 | 37344 ft | 420 kts | 359° |
| 2026-04-21 20:59 | 32.32868 | -78.21263 | 37346 ft | 421 kts | 360° |
| 2026-04-21 20:59 | 32.38669 | -78.20407 | 37365 ft | 420 kts | 359° |
| 2026-04-21 21:00 | 32.44473 | -78.19553 | 37361 ft | 420 kts | 360° |
| 2026-04-21 21:00 | 32.50283 | -78.18696 | 37365 ft | 420 kts | 359° |
| 2026-04-21 21:01 | 32.56084 | -78.17847 | 37366 ft | 420 kts | 359° |
| 2026-04-21 21:01 | 32.61842 | -78.16997 | 37368 ft | 418 kts | 359° |
| 2026-04-21 21:02 | 32.67639 | -78.16148 | 37353 ft | 417 kts | 359° |
| 2026-04-21 21:02 | 32.73352 | -78.15307 | 37358 ft | 416 kts | 359° |
| 2026-04-21 21:03 | 32.79105 | -78.14452 | 37357 ft | 416 kts | 360° |
| 2026-04-21 21:03 | 32.84862 | -78.13591 | 37360 ft | 417 kts | 359° |
| 2026-04-21 21:04 | 32.90617 | -78.12743 | 37356 ft | 417 kts | 359° |
| 2026-04-21 21:04 | 32.96377 | -78.11895 | 37367 ft | 417 kts | 359° |
| 2026-04-21 21:05 | 33.02134 | -78.11039 | 37359 ft | 417 kts | 360° |
| 2026-04-21 21:05 | 33.07897 | -78.10177 | 37357 ft | 417 kts | 359° |
| 2026-04-21 21:06 | 33.13646 | -78.09322 | 37397 ft | 416 kts | 359° |
| 2026-04-21 21:06 | 33.19403 | -78.08466 | 37383 ft | 416 kts | 359° |
| 2026-04-21 21:07 | 33.25104 | -78.07614 | 37375 ft | 416 kts | 360° |
| 2026-04-21 21:07 | 33.30844 | -78.06748 | 37369 ft | 416 kts | 360° |
| 2026-04-21 21:08 | 33.36593 | -78.05880 | 37379 ft | 416 kts | 360° |
| 2026-04-21 21:08 | 33.42334 | -78.05019 | 37394 ft | 416 kts | 360° |
| 2026-04-21 21:09 | 33.48081 | -78.04155 | 37389 ft | 416 kts | 360° |
| 2026-04-21 21:09 | 33.53830 | -78.03272 | 37388 ft | 416 kts | 360° |
| 2026-04-21 21:10 | 33.59540 | -78.02395 | 37386 ft | 416 kts | 360° |
| 2026-04-21 21:10 | 33.65285 | -78.01525 | 37385 ft | 414 kts | 360° |
| 2026-04-21 21:11 | 33.70984 | -78.00665 | 37382 ft | 412 kts | 360° |
| 2026-04-21 21:11 | 33.76671 | -77.99808 | 37366 ft | 412 kts | 360° |
| 2026-04-21 21:12 | 33.82367 | -77.98951 | 37370 ft | 412 kts | 360° |
| 2026-04-21 21:12 | 33.88051 | -77.98133 | 37364 ft | 408 kts | 355° |
| 2026-04-21 21:13 | 33.93711 | -77.97920 | 37393 ft | 406 kts | 355° |
| 2026-04-21 21:13 | 33.99355 | -77.97727 | 37379 ft | 405 kts | 355° |
| 2026-04-21 21:14 | 34.05003 | -77.97524 | 37380 ft | 405 kts | 355° |
| 2026-04-21 21:14 | 34.10628 | -77.97318 | 37392 ft | 405 kts | 355° |
| 2026-04-21 21:15 | 34.16228 | -77.97115 | 37375 ft | 405 kts | 355° |
| 2026-04-21 21:15 | 34.21861 | -77.96916 | 37365 ft | 406 kts | 355° |
| 2026-04-21 21:16 | 34.27507 | -77.96713 | 37361 ft | 406 kts | 355° |
| 2026-04-21 21:16 | 34.33161 | -77.96513 | 37362 ft | 407 kts | 355° |
| 2026-04-21 21:17 | 34.38825 | -77.96307 | 37364 ft | 408 kts | 355° |
| 2026-04-21 21:17 | 34.44496 | -77.96096 | 37386 ft | 408 kts | 355° |
| 2026-04-21 21:18 | 34.50176 | -77.95887 | 37371 ft | 408 kts | 355° |
| 2026-04-21 21:18 | 34.55845 | -77.95680 | 37378 ft | 408 kts | 355° |
| 2026-04-21 21:19 | 34.61506 | -77.95484 | 37372 ft | 408 kts | 355° |
| 2026-04-21 21:19 | 34.67173 | -77.95281 | 37362 ft | 406 kts | 355° |
| 2026-04-21 21:20 | 34.72812 | -77.95064 | 37358 ft | 405 kts | 355° |
| 2026-04-21 21:20 | 34.78447 | -77.94856 | 37358 ft | 405 kts | 355° |
| 2026-04-21 21:21 | 34.84043 | -77.94650 | 37361 ft | 405 kts | 355° |
| 2026-04-21 21:21 | 34.89685 | -77.94440 | 37370 ft | 405 kts | 355° |
| 2026-04-21 21:22 | 34.95332 | -77.94237 | 37391 ft | 405 kts | 355° |
| 2026-04-21 21:22 | 35.00964 | -77.94033 | 37385 ft | 405 kts | 355° |
| 2026-04-21 21:23 | 35.06594 | -77.93822 | 37381 ft | 405 kts | 355° |
| 2026-04-21 21:23 | 35.12223 | -77.93616 | 37381 ft | 405 kts | 355° |
| 2026-04-21 21:24 | 35.17858 | -77.93411 | 37384 ft | 404 kts | 355° |
| 2026-04-21 21:24 | 35.23475 | -77.93200 | 37370 ft | 404 kts | 355° |
| 2026-04-21 21:25 | 35.29105 | -77.92992 | 37363 ft | 404 kts | 355° |
| 2026-04-21 21:25 | 35.34688 | -77.93144 | 37362 ft | 400 kts | 350° |
| 2026-04-21 21:26 | 35.40249 | -77.93604 | 37363 ft | 400 kts | 350° |
| 2026-04-21 21:26 | 35.45768 | -77.94060 | 37362 ft | 400 kts | 350° |
| 2026-04-21 21:27 | 35.51334 | -77.94516 | 37361 ft | 400 kts | 350° |
| 2026-04-21 21:27 | 35.56899 | -77.94974 | 37363 ft | 400 kts | 350° |
| 2026-04-21 21:28 | 35.62467 | -77.95432 | 37367 ft | 400 kts | 350° |
| 2026-04-21 21:29 | 35.70790 | -77.96133 | 37349 ft | 399 kts | 350° |
| 2026-04-21 21:29 | 35.76328 | -77.96596 | 37350 ft | 399 kts | 350° |
| 2026-04-21 21:30 | 35.80932 | -77.96979 | 37348 ft | 399 kts | 350° |
| 2026-04-21 21:30 | 35.86474 | -77.97441 | 37368 ft | 399 kts | 350° |
| 2026-04-21 21:31 | 35.92915 | -77.97975 | 37380 ft | 399 kts | 350° |
| 2026-04-21 21:31 | 35.97558 | -77.98366 | 37372 ft | 399 kts | 350° |
| 2026-04-21 21:32 | 36.03108 | -77.98842 | 37367 ft | 400 kts | 350° |
| 2026-04-21 21:32 | 36.08661 | -77.99312 | 37366 ft | 400 kts | 350° |
| 2026-04-21 21:33 | 36.14172 | -77.99778 | 37365 ft | 400 kts | 350° |
| 2026-04-21 21:33 | 36.19724 | -78.00238 | 37380 ft | 400 kts | 350° |
| 2026-04-21 21:34 | 36.25281 | -78.00700 | 37364 ft | 400 kts | 350° |
| 2026-04-21 21:34 | 36.30834 | -78.01163 | 37351 ft | 400 kts | 350° |
| 2026-04-21 21:35 | 36.36386 | -78.01621 | 37346 ft | 401 kts | 353° |
| 2026-04-21 21:35 | 36.42011 | -78.00703 | 37373 ft | 413 kts | 5° |
| 2026-04-21 21:36 | 36.47601 | -77.99230 | 37360 ft | 413 kts | 5° |
| 2026-04-21 21:36 | 36.53227 | -77.97758 | 37344 ft | 413 kts | 5° |
| 2026-04-21 21:37 | 36.58850 | -77.96292 | 37379 ft | 413 kts | 5° |
| 2026-04-21 21:37 | 36.64483 | -77.94832 | 37389 ft | 414 kts | 5° |
| 2026-04-21 21:38 | 36.70125 | -77.93372 | 37380 ft | 414 kts | 5° |
| 2026-04-21 21:38 | 36.75804 | -77.91886 | 37372 ft | 415 kts | 5° |
| 2026-04-21 21:39 | 36.81416 | -77.90375 | 37359 ft | 415 kts | 5° |
| 2026-04-21 21:39 | 36.87064 | -77.88869 | 37330 ft | 415 kts | 5° |
| 2026-04-21 21:40 | 36.92723 | -77.87377 | 37311 ft | 416 kts | 5° |
| 2026-04-21 21:40 | 36.98389 | -77.85878 | 37305 ft | 416 kts | 6° |
| 2026-04-21 21:41 | 37.04052 | -77.84373 | 37303 ft | 417 kts | 5° |
| 2026-04-21 21:41 | 37.09726 | -77.82867 | 37316 ft | 417 kts | 6° |
| 2026-04-21 21:42 | 37.15414 | -77.81355 | 37307 ft | 418 kts | 6° |
| 2026-04-21 21:42 | 37.21106 | -77.79839 | 37323 ft | 418 kts | 6° |
| 2026-04-21 21:43 | 37.26803 | -77.78326 | 37320 ft | 419 kts | 6° |
| 2026-04-21 21:43 | 37.32514 | -77.76797 | 37335 ft | 420 kts | 6° |
| 2026-04-21 21:44 | 37.38244 | -77.75256 | 37322 ft | 421 kts | 6° |
| 2026-04-21 21:44 | 37.43985 | -77.73719 | 37322 ft | 422 kts | 6° |
| 2026-04-21 21:45 | 37.49685 | -77.72185 | 37315 ft | 423 kts | 8° |
| 2026-04-21 21:45 | 37.55168 | -77.69227 | 37328 ft | 438 kts | 27° |
| 2026-04-21 21:46 | 37.60308 | -77.65057 | 37326 ft | 439 kts | 27° |
| 2026-04-21 21:46 | 37.65463 | -77.60884 | 37313 ft | 440 kts | 27° |
| 2026-04-21 21:47 | 37.70629 | -77.56707 | 37334 ft | 441 kts | 27° |
| 2026-04-21 21:47 | 37.75789 | -77.52542 | 37330 ft | 441 kts | 26° |
| 2026-04-21 21:48 | 37.80931 | -77.48392 | 37326 ft | 441 kts | 27° |
| 2026-04-21 21:48 | 37.86093 | -77.44200 | 37325 ft | 441 kts | 27° |
| 2026-04-21 21:49 | 37.91250 | -77.39984 | 37322 ft | 441 kts | 27° |
| 2026-04-21 21:49 | 37.96409 | -77.35761 | 37325 ft | 441 kts | 27° |
| 2026-04-21 21:50 | 38.01564 | -77.31553 | 37309 ft | 441 kts | 27° |
| 2026-04-21 21:50 | 38.06694 | -77.27362 | 37297 ft | 441 kts | 27° |
| 2026-04-21 21:51 | 38.11845 | -77.23133 | 37290 ft | 441 kts | 27° |
| 2026-04-21 21:51 | 38.17006 | -77.18887 | 37300 ft | 441 kts | 27° |
| 2026-04-21 21:52 | 38.22155 | -77.14658 | 37310 ft | 441 kts | 27° |
| 2026-04-21 21:52 | 38.27310 | -77.10424 | 37307 ft | 441 kts | 27° |
| 2026-04-21 21:53 | 38.32385 | -77.06033 | 37307 ft | 443 kts | 30° |
| 2026-04-21 21:53 | 38.37294 | -77.01258 | 37305 ft | 444 kts | 32° |
| 2026-04-21 21:54 | 38.42161 | -76.96399 | 37319 ft | 444 kts | 32° |
| 2026-04-21 21:54 | 38.47075 | -76.91608 | 37313 ft | 444 kts | 31° |
| 2026-04-21 21:55 | 38.52008 | -76.86871 | 37310 ft | 444 kts | 31° |
| 2026-04-21 21:55 | 38.56906 | -76.82146 | 37319 ft | 444 kts | 31° |
| 2026-04-21 21:56 | 38.61834 | -76.77369 | 37341 ft | 444 kts | 31° |
| 2026-04-21 21:56 | 38.66725 | -76.72621 | 37333 ft | 443 kts | 31° |
| 2026-04-21 21:57 | 38.71639 | -76.67841 | 37304 ft | 443 kts | 31° |
| 2026-04-21 21:57 | 38.76553 | -76.63050 | 37303 ft | 443 kts | 31° |
| 2026-04-21 21:58 | 38.81457 | -76.58251 | 37317 ft | 444 kts | 31° |
| 2026-04-21 21:58 | 38.86360 | -76.53437 | 37318 ft | 444 kts | 31° |
| 2026-04-21 21:59 | 38.91263 | -76.48635 | 37332 ft | 443 kts | 31° |
| 2026-04-21 21:59 | 38.96173 | -76.43836 | 37109 ft | 443 kts | 31° |
| 2026-04-21 21:59 | 38.98616 | -76.41439 | 36842 ft | 442 kts | 31° |
| 2026-04-21 22:00 | 39.01058 | -76.39035 | 36410 ft | 443 kts | 31° |
| 2026-04-21 22:00 | 39.03499 | -76.36595 | 35597 ft | 448 kts | 32° |
| 2026-04-21 22:00 | 39.05903 | -76.33996 | 34802 ft | 453 kts | 34° |
| 2026-04-21 22:00 | 39.08256 | -76.31274 | 33882 ft | 458 kts | 36° |
| 2026-04-21 22:01 | 39.10604 | -76.28452 | 32895 ft | 462 kts | 37° |
| 2026-04-21 22:01 | 39.12938 | -76.25611 | 31927 ft | 464 kts | 37° |
| 2026-04-21 22:01 | 39.15298 | -76.22756 | 30966 ft | 466 kts | 37° |
| 2026-04-21 22:01 | 39.17689 | -76.19904 | 29765 ft | 470 kts | 36° |
| 2026-04-21 22:02 | 39.20091 | -76.17076 | 29124 ft | 462 kts | 36° |
| 2026-04-21 22:02 | 39.22444 | -76.14314 | 28493 ft | 455 kts | 36° |
| 2026-04-21 22:02 | 39.24773 | -76.11586 | 27809 ft | 449 kts | 36° |
| 2026-04-21 22:02 | 39.27066 | -76.08898 | 27403 ft | 441 kts | 36° |
| 2026-04-21 22:03 | 39.29327 | -76.06253 | 26813 ft | 438 kts | 36° |
| 2026-04-21 22:03 | 39.31578 | -76.03634 | 26353 ft | 432 kts | 35° |
| 2026-04-21 22:03 | 39.33809 | -76.01036 | 26086 ft | 431 kts | 36° |
| 2026-04-21 22:03 | 39.36021 | -75.98448 | 25712 ft | 428 kts | 36° |
| 2026-04-21 22:04 | 39.38221 | -75.95863 | 25324 ft | 426 kts | 36° |
| 2026-04-21 22:04 | 39.40411 | -75.93277 | 24988 ft | 425 kts | 36° |
| 2026-04-21 22:04 | 39.42584 | -75.90705 | 24610 ft | 422 kts | 36° |
| 2026-04-21 22:04 | 39.44743 | -75.88146 | 24242 ft | 420 kts | 36° |
| 2026-04-21 22:05 | 39.46869 | -75.85626 | 23878 ft | 418 kts | 36° |
| 2026-04-21 22:05 | 39.49011 | -75.83087 | 23474 ft | 416 kts | 36° |
| 2026-04-21 22:05 | 39.51139 | -75.80564 | 23121 ft | 414 kts | 36° |
| 2026-04-21 22:05 | 39.53280 | -75.78024 | 22770 ft | 411 kts | 36° |
| 2026-04-21 22:06 | 39.55354 | -75.75562 | 22401 ft | 408 kts | 36° |
| 2026-04-21 22:06 | 39.57437 | -75.73086 | 22046 ft | 406 kts | 36° |
| 2026-04-21 22:06 | 39.59508 | -75.70623 | 21703 ft | 403 kts | 36° |
| 2026-04-21 22:06 | 39.61577 | -75.68166 | 21344 ft | 401 kts | 36° |
| 2026-04-21 22:07 | 39.63630 | -75.65729 | 20995 ft | 399 kts | 36° |
| 2026-04-21 22:07 | 39.65667 | -75.63300 | 20651 ft | 397 kts | 36° |
| 2026-04-21 22:07 | 39.67693 | -75.60879 | 20310 ft | 395 kts | 36° |
| 2026-04-21 22:07 | 39.69708 | -75.58463 | 19914 ft | 393 kts | 36° |
| 2026-04-21 22:08 | 39.71704 | -75.56054 | 19518 ft | 390 kts | 36° |
| 2026-04-21 22:08 | 39.73688 | -75.53652 | 19121 ft | 388 kts | 36° |
| 2026-04-21 22:08 | 39.75652 | -75.51272 | 18729 ft | 386 kts | 36° |
| 2026-04-21 22:08 | 39.77613 | -75.48899 | 18307 ft | 383 kts | 36° |
| 2026-04-21 22:09 | 39.79552 | -75.46554 | 17920 ft | 381 kts | 36° |
| 2026-04-21 22:09 | 39.81497 | -75.44207 | 17287 ft | 383 kts | 36° |
| 2026-04-21 22:09 | 39.83436 | -75.41866 | 16851 ft | 377 kts | 36° |
| 2026-04-21 22:09 | 39.85343 | -75.39560 | 16464 ft | 372 kts | 36° |
| 2026-04-21 22:10 | 39.87237 | -75.37264 | 16088 ft | 370 kts | 36° |
| 2026-04-21 22:10 | 39.89116 | -75.34985 | 15712 ft | 368 kts | 36° |
| 2026-04-21 22:10 | 39.90985 | -75.32720 | 15339 ft | 366 kts | 36° |
| 2026-04-21 22:10 | 39.92838 | -75.30473 | 14977 ft | 364 kts | 37° |
| 2026-04-21 22:11 | 39.94680 | -75.28236 | 14603 ft | 362 kts | 37° |
| 2026-04-21 22:11 | 39.96516 | -75.26004 | 14247 ft | 359 kts | 37° |
| 2026-04-21 22:11 | 39.98350 | -75.23777 | 13845 ft | 358 kts | 37° |
| 2026-04-21 22:11 | 40.00154 | -75.21581 | 13537 ft | 350 kts | 37° |
| 2026-04-21 22:12 | 40.01880 | -75.19463 | 13397 ft | 329 kts | 37° |
| 2026-04-21 22:12 | 40.03491 | -75.17475 | 13239 ft | 312 kts | 36° |
| 2026-04-21 22:12 | 40.05045 | -75.15570 | 12863 ft | 302 kts | 36° |
| 2026-04-21 22:12 | 40.06573 | -75.13711 | 12239 ft | 299 kts | 36° |
| 2026-04-21 22:13 | 40.08077 | -75.11887 | 11898 ft | 297 kts | 36° |
| 2026-04-21 22:13 | 40.09587 | -75.10051 | 11593 ft | 294 kts | 36° |
| 2026-04-21 22:13 | 40.11079 | -75.08234 | 11296 ft | 293 kts | 36° |
| 2026-04-21 22:13 | 40.12563 | -75.06422 | 11009 ft | 291 kts | 36° |
| 2026-04-21 22:14 | 40.14036 | -75.04621 | 10730 ft | 290 kts | 35° |
| 2026-04-21 22:14 | 40.15509 | -75.02826 | 10462 ft | 289 kts | 35° |
| 2026-04-21 22:14 | 40.16982 | -75.01033 | 10190 ft | 288 kts | 35° |
| 2026-04-21 22:14 | 40.18442 | -74.99254 | 9896 ft | 287 kts | 35° |
| 2026-04-21 22:15 | 40.19903 | -74.97472 | 9625 ft | 286 kts | 36° |
| 2026-04-21 22:15 | 40.21356 | -74.95694 | 9355 ft | 285 kts | 36° |
| 2026-04-21 22:15 | 40.22801 | -74.93916 | 9087 ft | 285 kts | 36° |
| 2026-04-21 22:15 | 40.24235 | -74.92146 | 8828 ft | 283 kts | 37° |
| 2026-04-21 22:16 | 40.25183 | -74.90976 | 8663 ft | 282 kts | 37° |
| 2026-04-21 22:16 | 40.26578 | -74.89162 | 8396 ft | 283 kts | 40° |
| 2026-04-21 22:16 | 40.27924 | -74.87284 | 8142 ft | 282 kts | 41° |
| 2026-04-21 22:16 | 40.29249 | -74.85387 | 7975 ft | 281 kts | 42° |
| 2026-04-21 22:17 | 40.31001 | -74.82887 | 7975 ft | 281 kts | 41° |
| 2026-04-21 22:17 | 40.31906 | -74.81620 | 7964 ft | 282 kts | 41° |
| 2026-04-21 22:17 | 40.33264 | -74.79742 | 7601 ft | 284 kts | 41° |
| 2026-04-21 22:17 | 40.34630 | -74.77871 | 7258 ft | 283 kts | 41° |
| 2026-04-21 22:18 | 40.36033 | -74.76095 | 6912 ft | 278 kts | 31° |
| 2026-04-21 22:18 | 40.37718 | -74.74931 | 6566 ft | 271 kts | 19° |
| 2026-04-21 22:18 | 40.39441 | -74.73993 | 6198 ft | 271 kts | 18° |
| 2026-04-21 22:18 | 40.41203 | -74.73085 | 5970 ft | 266 kts | 18° |
| 2026-04-21 22:19 | 40.42937 | -74.72213 | 5974 ft | 267 kts | 18° |
| 2026-04-21 22:19 | 40.44657 | -74.71351 | 5970 ft | 268 kts | 18° |
| 2026-04-21 22:19 | 40.46404 | -74.70477 | 5969 ft | 268 kts | 18° |
| 2026-04-21 22:19 | 40.48147 | -74.69605 | 5968 ft | 268 kts | 18° |
| 2026-04-21 22:20 | 40.49885 | -74.68734 | 5967 ft | 268 kts | 18° |
| 2026-04-21 22:20 | 40.51627 | -74.67860 | 5966 ft | 268 kts | 18° |
| 2026-04-21 22:20 | 40.53370 | -74.66986 | 5966 ft | 268 kts | 18° |
| 2026-04-21 22:20 | 40.55113 | -74.66115 | 5965 ft | 269 kts | 18° |
| 2026-04-21 22:21 | 40.56869 | -74.65241 | 5965 ft | 269 kts | 18° |
| 2026-04-21 22:21 | 40.58621 | -74.64367 | 5965 ft | 269 kts | 18° |
| 2026-04-21 22:21 | 40.60371 | -74.63495 | 5966 ft | 270 kts | 18° |
| 2026-04-21 22:21 | 40.62124 | -74.62622 | 5966 ft | 269 kts | 18° |
| 2026-04-21 22:22 | 40.63882 | -74.61745 | 5965 ft | 269 kts | 18° |
| 2026-04-21 22:22 | 40.65625 | -74.60874 | 5964 ft | 269 kts | 18° |
| 2026-04-21 22:22 | 40.67379 | -74.59996 | 5965 ft | 269 kts | 18° |
| 2026-04-21 22:22 | 40.69129 | -74.59121 | 5965 ft | 269 kts | 18° |
| 2026-04-21 22:23 | 40.70882 | -74.58247 | 5967 ft | 269 kts | 18° |
| 2026-04-21 22:23 | 40.72613 | -74.57387 | 5967 ft | 269 kts | 18° |
| 2026-04-21 22:23 | 40.74366 | -74.56516 | 5974 ft | 270 kts | 18° |
| 2026-04-21 22:23 | 40.76122 | -74.55645 | 5971 ft | 270 kts | 18° |
| 2026-04-21 22:24 | 40.77888 | -74.54769 | 5971 ft | 270 kts | 18° |
| 2026-04-21 22:24 | 40.79646 | -74.53895 | 5982 ft | 271 kts | 18° |
| 2026-04-21 22:24 | 40.81410 | -74.53014 | 5983 ft | 270 kts | 18° |
| 2026-04-21 22:24 | 40.83164 | -74.52125 | 5983 ft | 271 kts | 20° |
| 2026-04-21 22:25 | 40.84706 | -74.50708 | 5816 ft | 273 kts | 43° |
| 2026-04-21 22:25 | 40.85987 | -74.48840 | 5443 ft | 274 kts | 47° |
| 2026-04-21 22:25 | 40.87246 | -74.46937 | 5075 ft | 275 kts | 48° |
| 2026-04-21 22:25 | 40.88504 | -74.45075 | 4971 ft | 272 kts | 47° |
| 2026-04-21 22:26 | 40.89783 | -74.43194 | 4982 ft | 275 kts | 47° |
| 2026-04-21 22:26 | 40.91060 | -74.41315 | 4986 ft | 275 kts | 48° |
| 2026-04-21 22:26 | 40.92340 | -74.39439 | 4988 ft | 275 kts | 47° |
| 2026-04-21 22:26 | 40.93609 | -74.37576 | 4983 ft | 275 kts | 47° |
| 2026-04-21 22:27 | 40.94852 | -74.35647 | 4975 ft | 275 kts | 58° |
| 2026-04-21 22:27 | 40.95499 | -74.33314 | 4984 ft | 272 kts | 83° |
| 2026-04-21 22:27 | 40.95691 | -74.30826 | 4983 ft | 271 kts | 87° |
| 2026-04-21 22:27 | 40.95824 | -74.28334 | 4983 ft | 273 kts | 88° |
| 2026-04-21 22:28 | 40.95953 | -74.25843 | 4764 ft | 271 kts | 88° |
| 2026-04-21 22:28 | 40.96077 | -74.23363 | 4447 ft | 269 kts | 87° |
| 2026-04-21 22:28 | 40.96202 | -74.20910 | 4266 ft | 262 kts | 87° |
| 2026-04-21 22:28 | 40.96329 | -74.18539 | 4136 ft | 254 kts | 88° |
| 2026-04-21 22:29 | 40.96446 | -74.16260 | 4019 ft | 243 kts | 90° |
| 2026-04-21 22:29 | 40.96109 | -74.14179 | 3978 ft | 225 kts | 120° |
| 2026-04-21 22:29 | 40.95307 | -74.12423 | 3986 ft | 222 kts | 126° |
| 2026-04-21 22:29 | 40.94445 | -74.10727 | 3986 ft | 222 kts | 127° |
| 2026-04-21 22:30 | 40.93574 | -74.09053 | 3988 ft | 221 kts | 127° |
| 2026-04-21 22:30 | 40.92696 | -74.07386 | 3989 ft | 221 kts | 129° |
| 2026-04-21 22:30 | 40.91582 | -74.06061 | 3983 ft | 214 kts | 159° |
| 2026-04-21 22:30 | 40.90198 | -74.05620 | 3992 ft | 197 kts | 175° |
| 2026-04-21 22:31 | 40.88871 | -74.05426 | 3870 ft | 188 kts | 177° |
| 2026-04-21 22:31 | 40.87607 | -74.05274 | 3749 ft | 179 kts | 179° |
| 2026-04-21 22:31 | 40.86394 | -74.05540 | 3647 ft | 176 kts | 205° |
| 2026-04-21 22:31 | 40.85288 | -74.06236 | 3450 ft | 176 kts | 208° |
| 2026-04-21 22:32 | 40.84199 | -74.06937 | 3218 ft | 174 kts | 208° |
| 2026-04-21 22:32 | 40.83100 | -74.07641 | 2983 ft | 175 kts | 208° |
| 2026-04-21 22:32 | 40.82017 | -74.08334 | 2740 ft | 170 kts | 207° |
| 2026-04-21 22:32 | 40.80982 | -74.08995 | 2512 ft | 165 kts | 206° |
| 2026-04-21 22:33 | 40.79959 | -74.09649 | 2285 ft | 163 kts | 206° |
| 2026-04-21 22:33 | 40.78934 | -74.10303 | 2086 ft | 154 kts | 205° |
| 2026-04-21 22:33 | 40.78036 | -74.10877 | 1885 ft | 138 kts | 205° |
| 2026-04-21 22:33 | 40.77191 | -74.11416 | 1690 ft | 134 kts | 204° |
| 2026-04-21 22:34 | 40.76369 | -74.11940 | 1507 ft | 131 kts | 204° |
| 2026-04-21 22:34 | 40.75546 | -74.12465 | 1327 ft | 130 kts | 204° |
| 2026-04-21 22:34 | 40.74723 | -74.12989 | 1139 ft | 133 kts | 204° |
| 2026-04-21 22:34 | 40.73895 | -74.13517 | 960 ft | 130 kts | 202° |
| 2026-04-21 22:35 | 40.73087 | -74.14032 | 774 ft | 130 kts | 203° |
| 2026-04-21 22:35 | 40.72270 | -74.14552 | 602 ft | 131 kts | 203° |
| 2026-04-21 22:35 | 40.71454 | -74.15071 | 413 ft | 129 kts | 200° |
| 2026-04-21 22:35 | 40.70653 | -74.15604 | 228 ft | 130 kts | 202° |
| 2026-04-21 22:36 | 40.69074 | -74.16587 | 23 ft | 100 kts | 206° |
| 2026-04-21 22:36 | 40.68627 | -74.16872 | 22 ft | 38 kts | 206° |
| 2026-04-21 22:36 | 40.68476 | -74.16970 | 22 ft | 12 kts | 206° |
| 2026-04-21 22:37 | 40.68356 | -74.17062 | 22 ft | 26 kts | 217° |
| 2026-04-21 22:37 | 40.68228 | -74.17245 | 24 ft | 28 kts | 235° |
| 2026-04-21 22:37 | 40.68148 | -74.17403 | 21 ft | 10 kts | 238° |
| 2026-04-21 22:37 | 40.68143 | -74.17434 | 23 ft | 2 kts | 270° |
| 2026-04-21 22:38 | 40.68156 | -74.17476 | 21 ft | 7 kts | 296° |
| 2026-04-21 22:38 | 40.68183 | -74.17550 | 21 ft | 11 kts | 296° |
| 2026-04-21 22:38 | 40.68220 | -74.17650 | 22 ft | 13 kts | 301° |
| 2026-04-21 22:38 | 40.68287 | -74.17676 | 22 ft | 10 kts | 302° |
| 2026-04-21 22:39 | 40.68325 | -74.17780 | 22 ft | 14 kts | 296° |
| 2026-04-21 22:39 | 40.68373 | -74.17914 | 22 ft | 18 kts | 296° |
| 2026-04-21 22:39 | 40.68433 | -74.18079 | 22 ft | 22 kts | 296° |
| 2026-04-21 22:39 | 40.68500 | -74.18265 | 22 ft | 24 kts | 275° |
| 2026-04-21 22:40 | 40.68514 | -74.18474 | 22 ft | 13 kts | 276° |
| 2026-04-21 22:40 | 40.68568 | -74.18577 | 22 ft | 16 kts | 339° |
| 2026-04-21 22:40 | 40.68683 | -74.18590 | 22 ft | 12 kts | 358° |
| 2026-04-21 22:40 | 40.68739 | -74.18600 | 22 ft | 6 kts | 323° |
| 2026-04-21 22:41 | 40.68741 | -74.18668 | 22 ft | 9 kts | 265° |
| 2026-04-21 22:41 | 40.68739 | -74.18712 | 22 ft | 0 kts | 266° |
| 2026-04-21 22:41 | 40.68738 | -74.18713 | 22 ft | 0 kts | 266° |